sensor_id;sensor_type;location;lat;lon;timestamp;P1;durP1;ratioP1;P2;durP2;ratioP2
67108;SDS011;54027;50.786;7.058;2023-07-31T00:00:55;8.68;;;3.20;;
67108;SDS011;54027;50.786;7.058;2023-07-31T00:03:20;4.22;;;2.83;;
67108;SDS011;54027;50.786;7.058;2023-07-31T00:05:46;10.90;;;3.38;;
67108;SDS011;54027;50.786;7.058;2023-07-31T00:08:11;6.70;;;3.03;;
67108;SDS011;54027;50.786;7.058;2023-07-31T00:10:36;6.93;;;2.72;;
67108;SDS011;54027;50.786;7.058;2023-07-31T00:13:02;8.90;;;3.30;;
67108;SDS011;54027;50.786;7.058;2023-07-31T00:15:27;12.27;;;3.83;;
67108;SDS011;54027;50.786;7.058;2023-07-31T00:17:52;6.10;;;2.95;;
67108;SDS011;54027;50.786;7.058;2023-07-31T00:20:18;6.38;;;2.90;;
67108;SDS011;54027;50.786;7.058;2023-07-31T00:22:43;6.18;;;3.05;;
67108;SDS011;54027;50.786;7.058;2023-07-31T00:25:08;7.15;;;3.17;;
67108;SDS011;54027;50.786;7.058;2023-07-31T00:27:34;7.70;;;3.25;;
67108;SDS011;54027;50.786;7.058;2023-07-31T00:29:59;6.60;;;2.97;;
67108;SDS011;54027;50.786;7.058;2023-07-31T00:32:24;8.27;;;3.08;;
67108;SDS011;54027;50.786;7.058;2023-07-31T00:34:50;8.45;;;2.95;;
67108;SDS011;54027;50.786;7.058;2023-07-31T00:37:15;6.65;;;2.67;;
67108;SDS011;54027;50.786;7.058;2023-07-31T00:39:40;5.35;;;2.33;;
67108;SDS011;54027;50.786;7.058;2023-07-31T00:42:06;6.32;;;2.55;;
67108;SDS011;54027;50.786;7.058;2023-07-31T00:44:32;7.10;;;2.95;;
67108;SDS011;54027;50.786;7.058;2023-07-31T00:46:57;6.45;;;2.30;;
67108;SDS011;54027;50.786;7.058;2023-07-31T00:49:24;4.75;;;2.50;;
67108;SDS011;54027;50.786;7.058;2023-07-31T00:51:50;5.50;;;2.17;;
67108;SDS011;54027;50.786;7.058;2023-07-31T00:54:16;5.80;;;2.33;;
67108;SDS011;54027;50.786;7.058;2023-07-31T00:56:41;5.30;;;2.22;;
67108;SDS011;54027;50.786;7.058;2023-07-31T00:59:10;6.93;;;2.30;;
67108;SDS011;54027;50.786;7.058;2023-07-31T01:01:35;3.85;;;2.30;;
67108;SDS011;54027;50.786;7.058;2023-07-31T01:04:01;5.63;;;2.72;;
67108;SDS011;54027;50.786;7.058;2023-07-31T01:11:52;5.20;;;2.35;;
67108;SDS011;54027;50.786;7.058;2023-07-31T01:14:20;6.30;;;2.08;;
67108;SDS011;54027;50.786;7.058;2023-07-31T01:16:46;5.57;;;2.35;;
67108;SDS011;54027;50.786;7.058;2023-07-31T01:19:11;3.50;;;2.28;;
67108;SDS011;54027;50.786;7.058;2023-07-31T01:21:48;4.30;;;2.10;;
67108;SDS011;54027;50.786;7.058;2023-07-31T01:24:39;5.80;;;2.00;;
67108;SDS011;54027;50.786;7.058;2023-07-31T01:27:14;3.38;;;2.20;;
67108;SDS011;54027;50.786;7.058;2023-07-31T01:29:49;4.22;;;2.00;;
67108;SDS011;54027;50.786;7.058;2023-07-31T01:32:42;4.47;;;2.10;;
67108;SDS011;54027;50.786;7.058;2023-07-31T01:35:08;5.53;;;2.50;;
67108;SDS011;54027;50.786;7.058;2023-07-31T01:37:34;3.00;;;1.77;;
67108;SDS011;54027;50.786;7.058;2023-07-31T01:39:59;5.47;;;1.98;;
67108;SDS011;54027;50.786;7.058;2023-07-31T01:42:25;4.18;;;2.22;;
67108;SDS011;54027;50.786;7.058;2023-07-31T01:44:50;2.58;;;1.65;;
67108;SDS011;54027;50.786;7.058;2023-07-31T01:47:16;3.30;;;1.75;;
67108;SDS011;54027;50.786;7.058;2023-07-31T01:49:41;3.72;;;2.13;;
67108;SDS011;54027;50.786;7.058;2023-07-31T01:52:06;5.22;;;2.05;;
67108;SDS011;54027;50.786;7.058;2023-07-31T01:54:32;3.63;;;2.30;;
67108;SDS011;54027;50.786;7.058;2023-07-31T01:56:58;6.32;;;2.63;;
67108;SDS011;54027;50.786;7.058;2023-07-31T01:59:23;4.97;;;2.42;;
67108;SDS011;54027;50.786;7.058;2023-07-31T02:01:49;3.85;;;1.75;;
67108;SDS011;54027;50.786;7.058;2023-07-31T02:04:14;5.25;;;2.42;;
67108;SDS011;54027;50.786;7.058;2023-07-31T02:06:39;3.08;;;1.95;;
67108;SDS011;54027;50.786;7.058;2023-07-31T02:09:05;3.22;;;1.98;;
67108;SDS011;54027;50.786;7.058;2023-07-31T02:11:30;3.97;;;1.77;;
67108;SDS011;54027;50.786;7.058;2023-07-31T02:13:55;4.97;;;2.33;;
67108;SDS011;54027;50.786;7.058;2023-07-31T02:16:21;5.30;;;2.65;;
67108;SDS011;54027;50.786;7.058;2023-07-31T02:18:46;6.18;;;2.50;;
67108;SDS011;54027;50.786;7.058;2023-07-31T02:21:11;5.32;;;2.53;;
67108;SDS011;54027;50.786;7.058;2023-07-31T02:23:37;4.65;;;2.25;;
67108;SDS011;54027;50.786;7.058;2023-07-31T02:26:02;5.70;;;2.42;;
67108;SDS011;54027;50.786;7.058;2023-07-31T02:28:28;5.95;;;2.08;;
67108;SDS011;54027;50.786;7.058;2023-07-31T02:30:54;6.68;;;2.30;;
67108;SDS011;54027;50.786;7.058;2023-07-31T02:33:19;5.40;;;2.45;;
67108;SDS011;54027;50.786;7.058;2023-07-31T02:35:44;5.82;;;2.63;;
67108;SDS011;54027;50.786;7.058;2023-07-31T02:38:09;5.25;;;2.53;;
67108;SDS011;54027;50.786;7.058;2023-07-31T02:40:35;3.80;;;2.30;;
67108;SDS011;54027;50.786;7.058;2023-07-31T02:43:00;5.55;;;2.90;;
67108;SDS011;54027;50.786;7.058;2023-07-31T02:45:25;6.38;;;2.80;;
67108;SDS011;54027;50.786;7.058;2023-07-31T02:47:51;3.97;;;2.28;;
67108;SDS011;54027;50.786;7.058;2023-07-31T02:50:16;7.22;;;2.92;;
67108;SDS011;54027;50.786;7.058;2023-07-31T02:52:41;6.35;;;2.75;;
67108;SDS011;54027;50.786;7.058;2023-07-31T02:55:07;6.35;;;2.70;;
67108;SDS011;54027;50.786;7.058;2023-07-31T02:57:32;7.38;;;2.70;;
67108;SDS011;54027;50.786;7.058;2023-07-31T02:59:58;6.50;;;2.83;;
67108;SDS011;54027;50.786;7.058;2023-07-31T03:02:23;4.15;;;2.38;;
67108;SDS011;54027;50.786;7.058;2023-07-31T03:04:48;5.85;;;3.08;;
67108;SDS011;54027;50.786;7.058;2023-07-31T03:07:14;5.65;;;2.60;;
67108;SDS011;54027;50.786;7.058;2023-07-31T03:09:39;7.78;;;2.83;;
67108;SDS011;54027;50.786;7.058;2023-07-31T03:12:05;6.43;;;2.42;;
67108;SDS011;54027;50.786;7.058;2023-07-31T03:14:30;5.63;;;2.63;;
67108;SDS011;54027;50.786;7.058;2023-07-31T03:16:56;6.75;;;2.85;;
67108;SDS011;54027;50.786;7.058;2023-07-31T03:19:21;6.40;;;2.83;;
67108;SDS011;54027;50.786;7.058;2023-07-31T03:21:47;6.70;;;2.80;;
67108;SDS011;54027;50.786;7.058;2023-07-31T03:24:12;6.60;;;2.80;;
67108;SDS011;54027;50.786;7.058;2023-07-31T03:26:37;5.97;;;2.78;;
67108;SDS011;54027;50.786;7.058;2023-07-31T03:29:03;4.90;;;2.42;;
67108;SDS011;54027;50.786;7.058;2023-07-31T03:31:29;5.00;;;2.33;;
67108;SDS011;54027;50.786;7.058;2023-07-31T03:33:54;4.47;;;2.72;;
67108;SDS011;54027;50.786;7.058;2023-07-31T03:36:19;7.43;;;3.00;;
67108;SDS011;54027;50.786;7.058;2023-07-31T03:38:45;5.35;;;2.42;;
67108;SDS011;54027;50.786;7.058;2023-07-31T03:41:11;8.88;;;3.05;;
67108;SDS011;54027;50.786;7.058;2023-07-31T03:43:36;4.88;;;2.63;;
67108;SDS011;54027;50.786;7.058;2023-07-31T03:46:02;4.30;;;3.00;;
67108;SDS011;54027;50.786;7.058;2023-07-31T03:48:27;8.35;;;2.92;;
67108;SDS011;54027;50.786;7.058;2023-07-31T03:50:53;4.70;;;2.63;;
67108;SDS011;54027;50.786;7.058;2023-07-31T03:53:19;7.32;;;3.13;;
67108;SDS011;54027;50.786;7.058;2023-07-31T03:55:44;5.50;;;2.85;;
67108;SDS011;54027;50.786;7.058;2023-07-31T03:58:09;7.22;;;2.60;;
67108;SDS011;54027;50.786;7.058;2023-07-31T04:00:34;5.40;;;2.58;;
67108;SDS011;54027;50.786;7.058;2023-07-31T04:03:00;4.50;;;2.80;;
67108;SDS011;54027;50.786;7.058;2023-07-31T04:05:25;9.07;;;3.22;;
67108;SDS011;54027;50.786;7.058;2023-07-31T04:07:51;5.85;;;2.55;;
67108;SDS011;54027;50.786;7.058;2023-07-31T04:10:19;8.45;;;3.28;;
67108;SDS011;54027;50.786;7.058;2023-07-31T04:12:44;4.90;;;3.00;;
67108;SDS011;54027;50.786;7.058;2023-07-31T04:15:10;5.50;;;2.45;;
67108;SDS011;54027;50.786;7.058;2023-07-31T04:17:35;11.73;;;6.75;;
67108;SDS011;54027;50.786;7.058;2023-07-31T04:20:00;10.70;;;3.78;;
67108;SDS011;54027;50.786;7.058;2023-07-31T04:22:27;5.07;;;3.15;;
67108;SDS011;54027;50.786;7.058;2023-07-31T04:24:52;3.90;;;2.25;;
67108;SDS011;54027;50.786;7.058;2023-07-31T04:27:18;7.25;;;3.30;;
67108;SDS011;54027;50.786;7.058;2023-07-31T04:29:43;7.13;;;2.95;;
67108;SDS011;54027;50.786;7.058;2023-07-31T04:32:10;8.05;;;2.90;;
67108;SDS011;54027;50.786;7.058;2023-07-31T04:34:36;6.38;;;3.20;;
67108;SDS011;54027;50.786;7.058;2023-07-31T04:37:01;6.78;;;3.15;;
67108;SDS011;54027;50.786;7.058;2023-07-31T04:39:27;7.28;;;3.60;;
67108;SDS011;54027;50.786;7.058;2023-07-31T04:41:52;6.72;;;3.22;;
67108;SDS011;54027;50.786;7.058;2023-07-31T04:44:17;5.22;;;2.88;;
67108;SDS011;54027;50.786;7.058;2023-07-31T04:46:43;7.63;;;3.10;;
67108;SDS011;54027;50.786;7.058;2023-07-31T04:49:08;6.63;;;3.20;;
67108;SDS011;54027;50.786;7.058;2023-07-31T04:51:33;7.85;;;3.38;;
67108;SDS011;54027;50.786;7.058;2023-07-31T04:53:59;6.28;;;3.00;;
67108;SDS011;54027;50.786;7.058;2023-07-31T04:56:24;5.80;;;3.17;;
67108;SDS011;54027;50.786;7.058;2023-07-31T04:58:49;6.70;;;3.10;;
67108;SDS011;54027;50.786;7.058;2023-07-31T05:01:15;6.65;;;3.05;;
67108;SDS011;54027;50.786;7.058;2023-07-31T05:03:40;4.53;;;2.78;;
67108;SDS011;54027;50.786;7.058;2023-07-31T05:06:05;5.35;;;3.10;;
67108;SDS011;54027;50.786;7.058;2023-07-31T05:08:31;4.10;;;2.67;;
67108;SDS011;54027;50.786;7.058;2023-07-31T05:10:56;7.38;;;3.20;;
67108;SDS011;54027;50.786;7.058;2023-07-31T05:13:21;6.47;;;3.38;;
67108;SDS011;54027;50.786;7.058;2023-07-31T05:15:47;7.40;;;3.13;;
67108;SDS011;54027;50.786;7.058;2023-07-31T05:18:14;6.45;;;3.58;;
67108;SDS011;54027;50.786;7.058;2023-07-31T05:20:40;4.60;;;3.00;;
67108;SDS011;54027;50.786;7.058;2023-07-31T05:23:05;6.32;;;2.78;;
67108;SDS011;54027;50.786;7.058;2023-07-31T05:25:32;6.00;;;3.10;;
67108;SDS011;54027;50.786;7.058;2023-07-31T05:27:57;5.38;;;3.13;;
67108;SDS011;54027;50.786;7.058;2023-07-31T05:30:22;6.47;;;3.00;;
67108;SDS011;54027;50.786;7.058;2023-07-31T05:32:48;7.80;;;3.15;;
67108;SDS011;54027;50.786;7.058;2023-07-31T05:35:13;5.97;;;3.03;;
67108;SDS011;54027;50.786;7.058;2023-07-31T05:37:38;7.28;;;3.30;;
67108;SDS011;54027;50.786;7.058;2023-07-31T05:40:04;7.35;;;3.42;;
67108;SDS011;54027;50.786;7.058;2023-07-31T05:42:29;5.88;;;3.08;;
67108;SDS011;54027;50.786;7.058;2023-07-31T05:44:55;5.78;;;2.97;;
67108;SDS011;54027;50.786;7.058;2023-07-31T05:47:20;6.60;;;2.90;;
67108;SDS011;54027;50.786;7.058;2023-07-31T05:49:45;6.00;;;2.88;;
67108;SDS011;54027;50.786;7.058;2023-07-31T05:52:11;6.63;;;3.45;;
67108;SDS011;54027;50.786;7.058;2023-07-31T05:54:36;5.55;;;3.33;;
67108;SDS011;54027;50.786;7.058;2023-07-31T05:57:01;5.80;;;3.05;;
67108;SDS011;54027;50.786;7.058;2023-07-31T05:59:27;5.05;;;3.08;;
67108;SDS011;54027;50.786;7.058;2023-07-31T06:01:52;4.95;;;2.78;;
67108;SDS011;54027;50.786;7.058;2023-07-31T06:04:18;5.63;;;2.63;;
67108;SDS011;54027;50.786;7.058;2023-07-31T06:06:43;6.18;;;3.30;;
67108;SDS011;54027;50.786;7.058;2023-07-31T06:09:08;6.05;;;3.28;;
67108;SDS011;54027;50.786;7.058;2023-07-31T06:11:34;5.78;;;2.90;;
67108;SDS011;54027;50.786;7.058;2023-07-31T06:13:59;6.88;;;2.92;;
67108;SDS011;54027;50.786;7.058;2023-07-31T06:16:24;6.85;;;3.25;;
67108;SDS011;54027;50.786;7.058;2023-07-31T06:18:50;4.57;;;2.80;;
67108;SDS011;54027;50.786;7.058;2023-07-31T06:21:16;5.75;;;3.22;;
67108;SDS011;54027;50.786;7.058;2023-07-31T06:23:42;8.68;;;3.30;;
67108;SDS011;54027;50.786;7.058;2023-07-31T06:26:07;4.07;;;3.15;;
67108;SDS011;54027;50.786;7.058;2023-07-31T06:28:33;6.13;;;3.47;;
67108;SDS011;54027;50.786;7.058;2023-07-31T06:30:58;8.30;;;3.78;;
67108;SDS011;54027;50.786;7.058;2023-07-31T06:33:24;7.55;;;3.45;;
67108;SDS011;54027;50.786;7.058;2023-07-31T06:35:49;6.00;;;3.35;;
67108;SDS011;54027;50.786;7.058;2023-07-31T06:38:15;6.07;;;3.42;;
67108;SDS011;54027;50.786;7.058;2023-07-31T06:40:40;5.88;;;3.35;;
67108;SDS011;54027;50.786;7.058;2023-07-31T06:43:06;7.68;;;3.45;;
67108;SDS011;54027;50.786;7.058;2023-07-31T06:45:34;5.72;;;3.40;;
67108;SDS011;54027;50.786;7.058;2023-07-31T06:48:01;5.90;;;3.75;;
67108;SDS011;54027;50.786;7.058;2023-07-31T06:50:27;5.57;;;3.35;;
67108;SDS011;54027;50.786;7.058;2023-07-31T06:52:53;7.70;;;4.00;;
67108;SDS011;54027;50.786;7.058;2023-07-31T06:55:19;5.45;;;3.55;;
67108;SDS011;54027;50.786;7.058;2023-07-31T06:57:46;7.32;;;3.58;;
67108;SDS011;54027;50.786;7.058;2023-07-31T07:00:12;7.28;;;3.45;;
67108;SDS011;54027;50.786;7.058;2023-07-31T07:02:38;5.72;;;3.00;;
67108;SDS011;54027;50.786;7.058;2023-07-31T07:05:03;6.30;;;3.88;;
67108;SDS011;54027;50.786;7.058;2023-07-31T07:07:29;6.28;;;3.30;;
67108;SDS011;54027;50.786;7.058;2023-07-31T07:09:54;6.97;;;3.63;;
67108;SDS011;54027;50.786;7.058;2023-07-31T07:12:19;6.05;;;3.60;;
67108;SDS011;54027;50.786;7.058;2023-07-31T07:14:45;9.90;;;4.45;;
67108;SDS011;54027;50.786;7.058;2023-07-31T07:17:13;7.25;;;3.30;;
67108;SDS011;54027;50.786;7.058;2023-07-31T07:19:41;5.97;;;3.50;;
67108;SDS011;54027;50.786;7.058;2023-07-31T07:22:07;11.30;;;3.83;;
67108;SDS011;54027;50.786;7.058;2023-07-31T07:24:32;6.38;;;3.58;;
67108;SDS011;54027;50.786;7.058;2023-07-31T07:26:58;9.02;;;4.18;;
67108;SDS011;54027;50.786;7.058;2023-07-31T07:29:23;5.13;;;3.45;;
67108;SDS011;54027;50.786;7.058;2023-07-31T07:31:48;6.47;;;3.45;;
67108;SDS011;54027;50.786;7.058;2023-07-31T07:34:14;4.32;;;3.20;;
67108;SDS011;54027;50.786;7.058;2023-07-31T07:36:39;7.72;;;3.72;;
67108;SDS011;54027;50.786;7.058;2023-07-31T07:39:04;6.05;;;3.95;;
67108;SDS011;54027;50.786;7.058;2023-07-31T07:41:30;8.88;;;3.80;;
67108;SDS011;54027;50.786;7.058;2023-07-31T07:43:55;9.25;;;3.63;;
67108;SDS011;54027;50.786;7.058;2023-07-31T07:46:20;7.45;;;4.45;;
67108;SDS011;54027;50.786;7.058;2023-07-31T07:48:46;6.95;;;3.80;;
67108;SDS011;54027;50.786;7.058;2023-07-31T07:51:11;5.97;;;3.78;;
67108;SDS011;54027;50.786;7.058;2023-07-31T07:53:36;7.40;;;3.95;;
67108;SDS011;54027;50.786;7.058;2023-07-31T07:56:02;8.18;;;4.07;;
67108;SDS011;54027;50.786;7.058;2023-07-31T07:58:27;5.22;;;3.72;;
67108;SDS011;54027;50.786;7.058;2023-07-31T08:00:52;9.70;;;3.80;;
67108;SDS011;54027;50.786;7.058;2023-07-31T08:03:18;8.18;;;4.63;;
67108;SDS011;54027;50.786;7.058;2023-07-31T08:05:44;7.18;;;4.57;;
67108;SDS011;54027;50.786;7.058;2023-07-31T08:08:13;7.50;;;4.50;;
67108;SDS011;54027;50.786;7.058;2023-07-31T08:10:42;6.82;;;4.05;;
67108;SDS011;54027;50.786;7.058;2023-07-31T08:13:07;9.88;;;4.00;;
67108;SDS011;54027;50.786;7.058;2023-07-31T08:15:33;8.35;;;3.80;;
67108;SDS011;54027;50.786;7.058;2023-07-31T08:17:58;6.80;;;4.00;;
67108;SDS011;54027;50.786;7.058;2023-07-31T08:20:23;8.35;;;4.38;;
67108;SDS011;54027;50.786;7.058;2023-07-31T08:22:49;7.60;;;3.88;;
67108;SDS011;54027;50.786;7.058;2023-07-31T08:25:14;9.70;;;4.57;;
67108;SDS011;54027;50.786;7.058;2023-07-31T08:27:42;8.32;;;3.97;;
67108;SDS011;54027;50.786;7.058;2023-07-31T08:30:08;9.00;;;4.00;;
67108;SDS011;54027;50.786;7.058;2023-07-31T08:32:34;10.32;;;3.88;;
67108;SDS011;54027;50.786;7.058;2023-07-31T08:34:59;10.82;;;4.57;;
67108;SDS011;54027;50.786;7.058;2023-07-31T08:37:25;5.30;;;3.53;;
67108;SDS011;54027;50.786;7.058;2023-07-31T08:39:50;10.50;;;4.03;;
67108;SDS011;54027;50.786;7.058;2023-07-31T08:42:16;8.93;;;4.03;;
67108;SDS011;54027;50.786;7.058;2023-07-31T08:44:41;7.28;;;3.80;;
67108;SDS011;54027;50.786;7.058;2023-07-31T08:47:09;9.73;;;4.38;;
67108;SDS011;54027;50.786;7.058;2023-07-31T08:49:35;7.40;;;3.20;;
67108;SDS011;54027;50.786;7.058;2023-07-31T08:52:03;5.57;;;3.55;;
67108;SDS011;54027;50.786;7.058;2023-07-31T08:54:29;9.00;;;4.07;;
67108;SDS011;54027;50.786;7.058;2023-07-31T08:56:56;8.23;;;3.70;;
67108;SDS011;54027;50.786;7.058;2023-07-31T08:59:22;7.13;;;3.65;;
67108;SDS011;54027;50.786;7.058;2023-07-31T09:01:49;6.50;;;3.70;;
67108;SDS011;54027;50.786;7.058;2023-07-31T09:04:18;7.82;;;3.70;;
67108;SDS011;54027;50.786;7.058;2023-07-31T09:06:45;9.70;;;4.10;;
67108;SDS011;54027;50.786;7.058;2023-07-31T09:09:13;7.25;;;3.92;;
67108;SDS011;54027;50.786;7.058;2023-07-31T09:11:38;6.82;;;3.38;;
67108;SDS011;54027;50.786;7.058;2023-07-31T09:14:04;8.23;;;3.90;;
67108;SDS011;54027;50.786;7.058;2023-07-31T09:16:34;8.43;;;4.22;;
67108;SDS011;54027;50.786;7.058;2023-07-31T09:18:59;9.30;;;3.45;;
67108;SDS011;54027;50.786;7.058;2023-07-31T09:21:27;7.53;;;3.45;;
67108;SDS011;54027;50.786;7.058;2023-07-31T09:23:53;8.00;;;3.80;;
67108;SDS011;54027;50.786;7.058;2023-07-31T09:28:58;6.68;;;3.38;;
67108;SDS011;54027;50.786;7.058;2023-07-31T09:31:38;7.15;;;4.00;;
67108;SDS011;54027;50.786;7.058;2023-07-31T09:34:03;8.68;;;3.65;;
67108;SDS011;54027;50.786;7.058;2023-07-31T09:36:29;7.13;;;3.97;;
67108;SDS011;54027;50.786;7.058;2023-07-31T09:38:56;5.78;;;3.53;;
67108;SDS011;54027;50.786;7.058;2023-07-31T09:41:36;6.50;;;3.00;;
67108;SDS011;54027;50.786;7.058;2023-07-31T09:44:05;5.88;;;3.42;;
67108;SDS011;54027;50.786;7.058;2023-07-31T09:46:31;7.65;;;4.68;;
67108;SDS011;54027;50.786;7.058;2023-07-31T09:49:03;10.15;;;3.35;;
67108;SDS011;54027;50.786;7.058;2023-07-31T09:51:32;5.38;;;3.60;;
67108;SDS011;54027;50.786;7.058;2023-07-31T09:54:03;9.75;;;3.75;;
67108;SDS011;54027;50.786;7.058;2023-07-31T09:56:28;7.55;;;3.63;;
67108;SDS011;54027;50.786;7.058;2023-07-31T09:58:55;6.45;;;3.47;;
67108;SDS011;54027;50.786;7.058;2023-07-31T10:01:21;8.95;;;3.63;;
67108;SDS011;54027;50.786;7.058;2023-07-31T10:03:46;6.82;;;4.13;;
67108;SDS011;54027;50.786;7.058;2023-07-31T10:06:12;5.63;;;3.30;;
67108;SDS011;54027;50.786;7.058;2023-07-31T10:08:40;8.27;;;3.63;;
67108;SDS011;54027;50.786;7.058;2023-07-31T10:11:08;7.28;;;3.50;;
67108;SDS011;54027;50.786;7.058;2023-07-31T10:13:34;5.55;;;3.83;;
67108;SDS011;54027;50.786;7.058;2023-07-31T10:16:00;8.05;;;3.60;;
67108;SDS011;54027;50.786;7.058;2023-07-31T10:18:26;5.47;;;2.55;;
67108;SDS011;54027;50.786;7.058;2023-07-31T10:20:53;4.55;;;2.25;;
67108;SDS011;54027;50.786;7.058;2023-07-31T10:23:19;8.57;;;2.55;;
67108;SDS011;54027;50.786;7.058;2023-07-31T10:25:45;3.65;;;2.17;;
67108;SDS011;54027;50.786;7.058;2023-07-31T10:28:12;4.28;;;2.30;;
67108;SDS011;54027;50.786;7.058;2023-07-31T10:30:37;6.10;;;2.67;;
67108;SDS011;54027;50.786;7.058;2023-07-31T10:33:04;6.25;;;2.80;;
67108;SDS011;54027;50.786;7.058;2023-07-31T10:35:31;3.35;;;2.13;;
67108;SDS011;54027;50.786;7.058;2023-07-31T10:37:56;2.92;;;1.90;;
67108;SDS011;54027;50.786;7.058;2023-07-31T10:40:35;5.70;;;3.28;;
67108;SDS011;54027;50.786;7.058;2023-07-31T10:43:01;4.65;;;2.35;;
67108;SDS011;54027;50.786;7.058;2023-07-31T10:45:34;7.07;;;2.28;;
67108;SDS011;54027;50.786;7.058;2023-07-31T10:48:04;3.22;;;2.00;;
67108;SDS011;54027;50.786;7.058;2023-07-31T10:50:32;4.03;;;2.00;;
67108;SDS011;54027;50.786;7.058;2023-07-31T10:53:02;3.50;;;1.80;;
67108;SDS011;54027;50.786;7.058;2023-07-31T10:58:11;5.18;;;1.70;;
67108;SDS011;54027;50.786;7.058;2023-07-31T11:00:43;4.22;;;1.40;;
67108;SDS011;54027;50.786;7.058;2023-07-31T11:03:19;2.78;;;1.70;;
67108;SDS011;54027;50.786;7.058;2023-07-31T11:06:03;4.05;;;1.55;;
67108;SDS011;54027;50.786;7.058;2023-07-31T11:08:32;4.30;;;1.40;;
67108;SDS011;54027;50.786;7.058;2023-07-31T11:13:30;2.78;;;1.55;;
67108;SDS011;54027;50.786;7.058;2023-07-31T11:15:57;3.10;;;1.75;;
67108;SDS011;54027;50.786;7.058;2023-07-31T11:18:22;4.18;;;1.63;;
67108;SDS011;54027;50.786;7.058;2023-07-31T11:20:48;3.78;;;1.30;;
67108;SDS011;54027;50.786;7.058;2023-07-31T11:23:15;3.92;;;1.23;;
67108;SDS011;54027;50.786;7.058;2023-07-31T11:25:41;3.78;;;1.60;;
67108;SDS011;54027;50.786;7.058;2023-07-31T11:28:08;2.40;;;1.38;;
67108;SDS011;54027;50.786;7.058;2023-07-31T11:30:35;1.98;;;1.00;;
67108;SDS011;54027;50.786;7.058;2023-07-31T11:33:04;1.55;;;1.05;;
67108;SDS011;54027;50.786;7.058;2023-07-31T11:35:34;2.35;;;1.10;;
67108;SDS011;54027;50.786;7.058;2023-07-31T11:38:01;2.03;;;1.00;;
67108;SDS011;54027;50.786;7.058;2023-07-31T11:40:27;2.92;;;1.30;;
67108;SDS011;54027;50.786;7.058;2023-07-31T11:42:57;2.65;;;0.98;;
67108;SDS011;54027;50.786;7.058;2023-07-31T11:45:29;1.33;;;0.90;;
67108;SDS011;54027;50.786;7.058;2023-07-31T11:47:55;3.30;;;1.15;;
67108;SDS011;54027;50.786;7.058;2023-07-31T11:50:21;3.10;;;1.00;;
67108;SDS011;54027;50.786;7.058;2023-07-31T11:52:47;2.88;;;1.52;;
67108;SDS011;54027;50.786;7.058;2023-07-31T11:55:15;2.45;;;1.02;;
67108;SDS011;54027;50.786;7.058;2023-07-31T11:57:41;2.35;;;1.13;;
67108;SDS011;54027;50.786;7.058;2023-07-31T12:00:10;2.80;;;1.02;;
67108;SDS011;54027;50.786;7.058;2023-07-31T12:02:38;1.85;;;0.90;;
67108;SDS011;54027;50.786;7.058;2023-07-31T12:05:05;3.00;;;1.02;;
67108;SDS011;54027;50.786;7.058;2023-07-31T12:08:13;3.03;;;0.90;;
67108;SDS011;54027;50.786;7.058;2023-07-31T12:10:36;2.15;;;0.88;;
67108;SDS011;54027;50.786;7.058;2023-07-31T12:13:03;3.17;;;1.00;;
67108;SDS011;54027;50.786;7.058;2023-07-31T12:15:34;1.10;;;0.80;;
67108;SDS011;54027;50.786;7.058;2023-07-31T12:18:05;2.28;;;0.88;;
67108;SDS011;54027;50.786;7.058;2023-07-31T12:20:35;1.47;;;0.90;;
67108;SDS011;54027;50.786;7.058;2023-07-31T12:23:04;1.38;;;0.90;;
67108;SDS011;54027;50.786;7.058;2023-07-31T12:25:30;2.00;;;1.35;;
67108;SDS011;54027;50.786;7.058;2023-07-31T12:28:05;2.58;;;1.20;;
67108;SDS011;54027;50.786;7.058;2023-07-31T12:30:33;2.53;;;1.40;;
67108;SDS011;54027;50.786;7.058;2023-07-31T12:33:05;3.72;;;1.90;;
67108;SDS011;54027;50.786;7.058;2023-07-31T12:35:40;3.92;;;1.70;;
67108;SDS011;54027;50.786;7.058;2023-07-31T12:38:08;2.72;;;1.65;;
67108;SDS011;54027;50.786;7.058;2023-07-31T12:40:35;4.43;;;2.03;;
67108;SDS011;54027;50.786;7.058;2023-07-31T12:43:02;4.10;;;1.92;;
67108;SDS011;54027;50.786;7.058;2023-07-31T12:45:28;4.20;;;2.25;;
67108;SDS011;54027;50.786;7.058;2023-07-31T12:47:54;3.72;;;1.90;;
67108;SDS011;54027;50.786;7.058;2023-07-31T12:50:19;4.85;;;2.38;;
67108;SDS011;54027;50.786;7.058;2023-07-31T12:52:45;4.20;;;2.45;;
67108;SDS011;54027;50.786;7.058;2023-07-31T12:55:10;2.78;;;2.10;;
67108;SDS011;54027;50.786;7.058;2023-07-31T12:57:36;3.90;;;2.65;;
67108;SDS011;54027;50.786;7.058;2023-07-31T13:00:02;7.65;;;2.60;;
67108;SDS011;54027;50.786;7.058;2023-07-31T13:02:28;4.80;;;2.47;;
67108;SDS011;54027;50.786;7.058;2023-07-31T13:04:53;3.30;;;2.35;;
67108;SDS011;54027;50.786;7.058;2023-07-31T13:07:19;4.32;;;2.85;;
67108;SDS011;54027;50.786;7.058;2023-07-31T13:09:44;4.78;;;2.67;;
67108;SDS011;54027;50.786;7.058;2023-07-31T13:12:10;4.38;;;2.92;;
67108;SDS011;54027;50.786;7.058;2023-07-31T13:14:35;4.22;;;3.25;;
67108;SDS011;54027;50.786;7.058;2023-07-31T13:17:00;4.90;;;2.80;;
67108;SDS011;54027;50.786;7.058;2023-07-31T13:19:26;5.13;;;2.67;;
67108;SDS011;54027;50.786;7.058;2023-07-31T13:21:51;4.10;;;2.70;;
67108;SDS011;54027;50.786;7.058;2023-07-31T13:24:17;4.03;;;2.67;;
67108;SDS011;54027;50.786;7.058;2023-07-31T13:26:42;6.05;;;2.70;;
67108;SDS011;54027;50.786;7.058;2023-07-31T13:29:07;8.13;;;2.80;;
67108;SDS011;54027;50.786;7.058;2023-07-31T13:31:33;3.72;;;2.42;;
67108;SDS011;54027;50.786;7.058;2023-07-31T13:33:58;3.83;;;2.70;;
67108;SDS011;54027;50.786;7.058;2023-07-31T13:36:23;3.47;;;2.03;;
67108;SDS011;54027;50.786;7.058;2023-07-31T13:38:49;3.97;;;2.67;;
67108;SDS011;54027;50.786;7.058;2023-07-31T13:41:14;4.88;;;2.47;;
67108;SDS011;54027;50.786;7.058;2023-07-31T13:43:39;5.15;;;2.30;;
67108;SDS011;54027;50.786;7.058;2023-07-31T13:46:06;3.15;;;2.22;;
67108;SDS011;54027;50.786;7.058;2023-07-31T13:48:35;9.95;;;2.65;;
67108;SDS011;54027;50.786;7.058;2023-07-31T13:51:01;2.85;;;2.05;;
67108;SDS011;54027;50.786;7.058;2023-07-31T13:53:26;2.33;;;1.65;;
67108;SDS011;54027;50.786;7.058;2023-07-31T13:55:52;1.98;;;1.40;;
67108;SDS011;54027;50.786;7.058;2023-07-31T13:58:17;2.50;;;1.67;;
67108;SDS011;54027;50.786;7.058;2023-07-31T14:00:43;4.68;;;1.95;;
67108;SDS011;54027;50.786;7.058;2023-07-31T14:03:08;3.10;;;1.77;;
67108;SDS011;54027;50.786;7.058;2023-07-31T14:05:33;2.55;;;1.55;;
67108;SDS011;54027;50.786;7.058;2023-07-31T14:07:59;1.73;;;1.48;;
67108;SDS011;54027;50.786;7.058;2023-07-31T14:10:24;3.20;;;2.03;;
67108;SDS011;54027;50.786;7.058;2023-07-31T14:12:50;2.92;;;1.65;;
67108;SDS011;54027;50.786;7.058;2023-07-31T14:15:15;2.40;;;1.80;;
67108;SDS011;54027;50.786;7.058;2023-07-31T14:17:40;2.42;;;1.77;;
67108;SDS011;54027;50.786;7.058;2023-07-31T14:20:06;2.67;;;2.08;;
67108;SDS011;54027;50.786;7.058;2023-07-31T14:22:32;3.70;;;1.70;;
67108;SDS011;54027;50.786;7.058;2023-07-31T14:24:58;3.70;;;1.92;;
67108;SDS011;54027;50.786;7.058;2023-07-31T14:27:24;3.78;;;1.95;;
67108;SDS011;54027;50.786;7.058;2023-07-31T14:29:49;2.70;;;1.90;;
67108;SDS011;54027;50.786;7.058;2023-07-31T14:32:15;3.20;;;1.92;;
67108;SDS011;54027;50.786;7.058;2023-07-31T14:34:40;2.90;;;1.80;;
67108;SDS011;54027;50.786;7.058;2023-07-31T14:37:06;2.95;;;1.85;;
67108;SDS011;54027;50.786;7.058;2023-07-31T14:39:31;2.17;;;1.65;;
67108;SDS011;54027;50.786;7.058;2023-07-31T14:41:56;3.38;;;1.70;;
67108;SDS011;54027;50.786;7.058;2023-07-31T14:44:22;2.88;;;1.83;;
67108;SDS011;54027;50.786;7.058;2023-07-31T14:46:47;2.78;;;2.00;;
67108;SDS011;54027;50.786;7.058;2023-07-31T14:49:12;2.75;;;1.70;;
67108;SDS011;54027;50.786;7.058;2023-07-31T14:51:38;3.90;;;2.00;;
67108;SDS011;54027;50.786;7.058;2023-07-31T14:54:03;2.97;;;2.20;;
67108;SDS011;54027;50.786;7.058;2023-07-31T14:56:28;2.85;;;1.80;;